New Harbor, ME

43° 52' 34"N, 69° 29' 40"W, Elevation 65 ft.
Eastern Time

Hourly observations for the last 72 hours

Date Time Temperature (°F) Humi-
dity

(%)
Wind
(mph)
Pressure Rain (in) Sun
(W/m2)
ET
(in)
Air Dew 6 Hour 1 Hr 3 Hr 6 Hr Day
Alt
(in)
Sea
Level

(mb)
Max Min
20 21:00 59.4 55.2 86 WNW 0 G 2 30.01 1016.5 0.00 0 0.082
20 20:00 60.8 55.9 75.9 60.6 84 W 1 G 6 30.01 1016.2 0.00 0 0.081
20 19:00 63.0 55.7 77 W 3 G 7 30.00 1016.1 0.00 0 0.080
20 18:00 65.0 57.6 77 W 2 G 8 30.00 1016.1 0.00 35 0.078
20 17:00 67.8 58.5 72 WNW 1 G 4 30.00 1015.8 0.00 246 0.071
20 16:00 70.3 58.8 67 WSW 2 G 7 30.01 1016.3 0.00 490 0.066
20 15:00 67.9 58.2 71 W 1 G 8 30.02 1016.6 0.00 167 0.062
20 14:00 75.9 60.6 77.0 48.8 59 S 3 G 7 30.03 1017.1 0.00 329 0.046
20 13:00 75.3 57.0 53 W 4 G 7 30.06 1017.9 0.00 566 0.029
20 12:00 72.5 57.4 59 W 3 G 8 30.09 1018.9 0.00 700 0.013
20 11:00 68.5 57.5 68 W 1 G 6 30.11 1019.6 0.00 638 0.003
20 10:00 61.1 53.5 76 WNW 2 G 4 30.13 1020.2 0.00 62 0.001
20 09:00 54.6 50.8 87 NW 2 G 5 30.14 1020.7 0.00 49 0.000
20 08:00 48.8 47.7 48.8 43.4 96 N 0 G 2 30.14 1020.6 0.00 35 0.000
20 07:00 43.9 42.8 96 Calm 30.13 1020.4 0.00 14 0.000
20 06:00 43.7 42.4 95 W 1 G 2 30.12 1020.0 0.00 0 0.000
20 05:00 44.7 43.4 95 Calm 30.12 1020.0 0.00 0 0.000
20 04:00 45.4 44.1 95 NW 2 G 3 30.13 1020.4 0.00 0 0.000
20 03:00 46.1 44.5 94 WNW 1 G 3 30.13 1020.5 0.00 0 0.000
20 02:00 46.2 44.6 53.4 45.3 94 W 2 G 4 30.15 1021.0 0.00 0 0.000
20 01:00 46.8 45.2 94 W 1 G 3 30.17 1021.5 0.00 0 0.000
20 00:00 47.3 45.4 93 Calm 30.18 1022.0 0.00 0 0.107
19 23:00 48.7 46.2 91 NW 1 G 3 30.20 1022.7 0.00 0 0.107
19 22:00 51.4 48.3 89 WNW 1 G 6 30.20 1022.8 0.00 0 0.106
19 21:00 52.8 48.4 85 W 2 G 6 30.22 1023.2 0.00 0 0.105
19 20:00 53.4 48.0 66.8 53.4 82 WNW 1 G 7 30.23 1023.7 0.00 0 0.104
19 19:00 54.5 47.4 77 W 3 G 8 30.22 1023.5 0.00 0 0.103
19 18:00 57.1 47.8 71 W 2 G 7 30.23 1023.6 0.00 21 0.101
19 17:00 60.8 48.1 63 SSW 2 G 8 30.23 1023.8 0.00 257 0.093
19 16:00 63.6 47.2 55 S 4 G 8 30.24 1024.1 0.00 436 0.080
19 15:00 65.1 46.5 51 SSW 3 G 8 30.25 1024.3 0.00 589 0.064
19 14:00 65.0 47.5 67.9 44.8 53 S 5 G 10 30.27 1025.2 0.00 693 0.047
19 13:00 66.2 51.0 58 SSE 3 G 8 30.28 1025.4 0.00 594 0.030
19 12:00 65.6 47.5 52 SSE 2 G 6 30.29 1025.8 0.00 747 0.014
19 11:00 63.3 44.4 50 S 4 G 6 30.31 1026.3 0.00 682 0.004
19 10:00 57.1 48.2 72 N 2 G 4 30.33 1027.0 0.00 63 0.002
19 09:00 51.2 44.9 79 NNW 3 G 7 30.33 1027.1 0.00 49 0.001
19 08:00 44.8 42.6 44.9 39.8 92 N 1 G 5 30.32 1026.8 0.00 35 0.000
19 07:00 41.1 39.5 94 NW 2 G 6 30.30 1026.2 0.00 16 0.000
19 06:00 39.8 38.2 94 NNW 1 G 3 30.29 1025.8 0.00 0 0.000
19 05:00 40.8 39.2 94 NNW 1 G 4 30.28 1025.5 0.00 0 0.000
19 04:00 42.0 40.7 95 NNW 1 G 4 30.29 1025.7 0.00 0 0.000
19 03:00 42.5 41.2 95 NW 2 G 4 30.29 1025.9 0.00 0 0.000
19 02:00 42.2 40.9 46.2 42.0 95 NNW 2 G 3 30.29 1025.9 0.00 0 0.000
19 01:00 43.1 41.8 95 WNW 2 G 3 30.30 1026.1 0.00 0 0.000
19 00:00 43.2 41.9 95 NNW 2 G 3 30.31 1026.6 0.00 0 0.104
18 23:00 43.4 41.8 94 WNW 2 G 3 30.32 1026.7 0.00 0 0.104
18 22:00 43.5 41.9 94 Calm 30.32 1026.9 0.00 0 0.104
18 21:00 44.5 42.6 93 Calm 30.31 1026.5 0.00 0 0.104
18 20:00 46.2 44.0 64.6 46.1 92 Calm 30.30 1026.2 0.00 0 0.104
18 19:00 49.1 45.7 88 Calm 30.29 1025.7 0.00 0 0.104
18 18:00 54.6 47.5 77 S 1 G 4 30.27 1025.2 0.00 25 0.102
18 17:00 57.7 48.0 70 S 1 G 4 30.27 1025.2 0.00 258 0.095
18 16:00 60.9 49.5 66 S 1 G 5 30.27 1025.2 0.00 443 0.083
18 15:00 63.5 47.5 56 SSE 1 G 3 30.27 1025.2 0.00 591 0.068
18 14:00 63.8 46.4 64.7 48.5 53 SE 1 G 3 30.29 1025.6 0.00 705 0.052
18 13:00 63.7 44.2 49 SE 2 G 6 30.29 1025.9 0.00 606 0.036
18 12:00 58.2 42.6 56 NE 2 G 11 30.30 1025.9 0.00 749 0.020
18 11:00 56.1 42.0 59 ENE 5 G 11 30.29 1025.9 0.00 684 0.010
18 10:00 54.1 41.8 63 NE 6 G 12 30.30 1026.0 0.00 69 0.008
18 09:00 51.3 42.2 71 ENE 4 G 10 30.29 1025.6 0.00 54 0.006
18 08:00 48.5 42.6 51.1 45.6 80 NE 4 G 9 30.27 1025.1 0.00 37 0.005
18 07:00 46.2 41.6 84 ENE 2 G 3 30.25 1024.3 0.00 23 0.005
18 06:00 46.3 40.8 81 NNE 1 G 5 30.23 1023.8 0.00 0 0.004
18 05:00 47.6 41.7 80 ENE 2 G 4 30.21 1023.1 0.00 0 0.003
18 04:00 49.1 44.5 84 NE 0 G 3 30.20 1022.8 0.00 0 0.003
18 03:00 49.6 44.7 83 N 1 G 3 30.20 1022.7 0.00 0 0.002
18 02:00 51.0 44.7 57.3 48.7 79 N 1 G 3 30.20 1022.8 0.00 0 0.001
18 01:00 51.7 45.1 78 NNW 1 G 5 30.20 1022.8 0.00 0 0.000
18 00:00 48.9 44.3 84 SE 0 G 3 30.19 1022.5 0.00 0 0.075
17 23:00 52.4 45.1 76 ENE 2 G 8 30.19 1022.3 0.00 0 0.074
17 22:00 54.2 45.7 73 ENE 4 G 9 30.18 1022.0 0.00 0 0.073

Data generated by WxSolution Version 1.9.1.5, Build 2018.05.20.